createdAt,value
2022-10-09T00:00:23.055Z,4.00
2022-10-09T00:01:23.050Z,4.00
2022-10-09T00:02:23.056Z,4.00
2022-10-09T00:03:23.026Z,4.00
2022-10-09T00:04:23.019Z,4.00
2022-10-09T00:05:23.080Z,4.00
2022-10-09T00:06:22.996Z,4.00
2022-10-09T00:07:22.993Z,4.00
2022-10-09T00:08:22.977Z,4.00
2022-10-09T00:09:22.965Z,4.00
2022-10-09T00:10:22.957Z,4.00
2022-10-09T00:11:22.952Z,4.00
2022-10-09T00:12:22.943Z,4.00
2022-10-09T00:13:22.935Z,4.00
2022-10-09T00:14:22.921Z,4.00
2022-10-09T00:15:22.908Z,4.00
2022-10-09T00:16:22.955Z,4.00
2022-10-09T00:17:22.895Z,4.00
2022-10-09T00:18:22.879Z,4.00
2022-10-09T00:19:22.973Z,4.00
2022-10-09T00:20:22.865Z,4.00
2022-10-09T00:21:22.857Z,4.00
2022-10-09T00:22:22.847Z,4.00
2022-10-09T00:23:22.835Z,4.00
2022-10-09T00:24:22.822Z,4.00
2022-10-09T00:25:22.819Z,4.00
2022-10-09T00:26:22.807Z,4.00
2022-10-09T00:27:22.798Z,4.00
2022-10-09T00:28:22.871Z,4.00
2022-10-09T00:29:22.876Z,4.00
2022-10-09T00:30:22.761Z,4.00
2022-10-09T00:31:22.827Z,4.00
2022-10-09T00:32:22.743Z,4.00
2022-10-09T00:33:22.740Z,4.00
2022-10-09T00:34:22.730Z,4.00
2022-10-09T00:35:22.724Z,4.00
2022-10-09T00:36:22.709Z,4.00
2022-10-09T00:37:22.703Z,4.00
2022-10-09T00:38:22.690Z,4.00
2022-10-09T00:39:22.680Z,4.00
2022-10-09T00:40:22.770Z,4.00
2022-10-09T00:41:22.665Z,4.00
2022-10-09T00:42:22.651Z,4.00
2022-10-09T00:43:22.644Z,4.00
2022-10-09T00:44:22.631Z,4.00
2022-10-09T00:45:22.624Z,4.00
2022-10-09T00:46:22.691Z,4.00
2022-10-09T00:47:22.607Z,4.00
2022-10-09T00:48:22.597Z,4.00
2022-10-09T00:49:22.588Z,4.00
2022-10-09T00:50:22.580Z,4.00
2022-10-09T00:51:22.664Z,4.00
2022-10-09T00:52:22.557Z,4.00
2022-10-09T00:53:22.547Z,4.00
2022-10-09T00:54:22.542Z,4.00
2022-10-09T00:55:22.530Z,4.00
2022-10-09T00:56:22.516Z,4.00
2022-10-09T00:57:22.508Z,4.00
2022-10-09T00:58:22.511Z,4.00
2022-10-09T00:59:22.489Z,4.00
2022-10-09T01:00:22.500Z,4.00
2022-10-09T01:01:22.634Z,4.00
2022-10-09T01:02:22.518Z,4.00
2022-10-09T01:03:22.456Z,4.00
2022-10-09T01:04:22.447Z,4.00
2022-10-09T01:05:22.432Z,4.00
2022-10-09T01:06:22.423Z,4.00
2022-10-09T01:07:22.415Z,4.00
2022-10-09T01:08:22.404Z,4.00
2022-10-09T01:09:22.398Z,4.00
2022-10-09T01:10:22.382Z,4.00
2022-10-09T01:11:22.374Z,4.00
2022-10-09T01:12:22.369Z,4.00
2022-10-09T01:13:22.365Z,4.00
2022-10-09T01:14:22.348Z,4.00
2022-10-09T01:15:22.343Z,4.00
2022-10-09T01:16:24.013Z,4.00
2022-10-09T01:17:22.318Z,4.00
2022-10-09T01:18:22.314Z,4.00
2022-10-09T01:19:22.307Z,4.00
2022-10-09T01:20:22.292Z,4.00
2022-10-09T01:21:22.283Z,4.00
2022-10-09T01:22:22.270Z,4.00
2022-10-09T01:23:22.258Z,4.00
2022-10-09T01:24:22.254Z,4.00
2022-10-09T01:25:22.242Z,4.00
2022-10-09T01:26:22.236Z,4.00
2022-10-09T01:27:22.231Z,4.00
2022-10-09T01:28:22.271Z,4.00
2022-10-09T01:29:22.203Z,4.00
2022-10-09T01:30:22.195Z,4.00
2022-10-09T01:31:22.367Z,4.00
2022-10-09T01:32:22.175Z,4.00
2022-10-09T01:33:22.169Z,4.00
2022-10-09T01:34:22.152Z,4.00
2022-10-09T01:35:22.151Z,4.00
2022-10-09T01:36:22.136Z,4.00
2022-10-09T01:37:22.131Z,4.00
2022-10-09T01:38:22.115Z,4.00
2022-10-09T01:39:22.110Z,4.00
2022-10-09T01:40:22.098Z,4.00
2022-10-09T01:41:22.094Z,4.00
2022-10-09T01:42:22.185Z,4.00
2022-10-09T01:43:22.075Z,4.00
2022-10-09T01:44:22.064Z,4.00
2022-10-09T01:45:22.051Z,4.00
2022-10-09T01:46:22.120Z,4.00
2022-10-09T01:47:22.034Z,4.00
2022-10-09T01:48:22.027Z,4.00
2022-10-09T01:49:22.017Z,4.00
2022-10-09T01:50:22.004Z,4.00
2022-10-09T01:51:21.992Z,4.00
2022-10-09T01:52:21.987Z,4.00
2022-10-09T01:53:22.081Z,4.00
2022-10-09T01:54:21.968Z,4.00
2022-10-09T01:55:21.961Z,4.00
2022-10-09T01:56:21.948Z,4.00
2022-10-09T01:57:21.949Z,4.00
2022-10-09T01:58:21.931Z,4.00
2022-10-09T01:59:21.917Z,4.00
2022-10-09T02:00:21.910Z,4.00
2022-10-09T02:01:21.939Z,4.00
2022-10-09T02:02:21.968Z,4.00
2022-10-09T02:03:21.883Z,4.00
2022-10-09T02:04:21.869Z,4.00
2022-10-09T02:05:21.860Z,4.00
2022-10-09T02:06:21.850Z,4.00
2022-10-09T02:07:21.843Z,4.00
2022-10-09T02:08:21.833Z,4.00
2022-10-09T02:09:21.819Z,4.00
2022-10-09T02:10:21.815Z,4.00
2022-10-09T02:11:21.803Z,4.00
2022-10-09T02:12:21.794Z,4.00
2022-10-09T02:13:21.784Z,4.00
2022-10-09T02:14:21.777Z,4.00
2022-10-09T02:15:21.770Z,4.00
2022-10-09T02:16:21.798Z,4.00
2022-10-09T02:17:21.745Z,4.00
2022-10-09T02:18:21.835Z,4.00
2022-10-09T02:19:21.727Z,4.00
2022-10-09T02:20:21.716Z,4.00
2022-10-09T02:21:21.707Z,4.00
2022-10-09T02:22:21.697Z,4.00
2022-10-09T02:23:21.689Z,4.00
2022-10-09T02:24:21.677Z,4.00
2022-10-09T02:25:21.671Z,4.00
2022-10-09T02:26:21.660Z,4.00
2022-10-09T02:27:21.647Z,4.00
2022-10-09T02:28:21.682Z,4.00
2022-10-09T02:29:21.730Z,4.00
2022-10-09T02:30:21.616Z,4.00
2022-10-09T02:31:21.619Z,4.00
2022-10-09T02:32:21.596Z,4.00
2022-10-09T02:33:21.596Z,4.00
2022-10-09T02:34:21.582Z,4.00
2022-10-09T02:35:21.573Z,4.00
2022-10-09T02:36:21.561Z,4.00
2022-10-09T02:37:21.554Z,4.00
2022-10-09T02:38:21.543Z,4.00
2022-10-09T02:39:21.537Z,4.00
2022-10-09T02:40:21.621Z,4.00
2022-10-09T02:41:21.514Z,4.00
2022-10-09T02:42:21.499Z,4.00
2022-10-09T02:43:21.497Z,4.00
2022-10-09T02:44:21.487Z,4.00
2022-10-09T02:45:21.474Z,4.00
2022-10-09T02:46:21.554Z,4.00
2022-10-09T02:47:21.458Z,4.00
2022-10-09T02:48:21.443Z,4.00
2022-10-09T02:49:21.437Z,4.00
2022-10-09T02:50:21.527Z,4.00
2022-10-09T02:51:21.417Z,4.00
2022-10-09T02:52:21.408Z,4.00
2022-10-09T02:53:21.396Z,4.00
2022-10-09T02:54:21.391Z,4.00
2022-10-09T02:55:21.375Z,4.00
2022-10-09T02:56:21.372Z,4.00
2022-10-09T02:57:21.362Z,4.00
2022-10-09T02:58:21.348Z,4.00
2022-10-09T02:59:21.345Z,4.00
2022-10-09T03:00:21.424Z,4.00
2022-10-09T03:01:21.369Z,4.00
2022-10-09T03:02:21.422Z,4.00
2022-10-09T03:03:21.303Z,4.00
2022-10-09T03:04:21.288Z,4.00
2022-10-09T03:05:21.282Z,4.00
2022-10-09T03:06:21.276Z,4.00
2022-10-09T03:07:21.264Z,4.00
2022-10-09T03:08:21.255Z,4.00
2022-10-09T03:09:21.241Z,4.00
2022-10-09T03:10:21.335Z,4.00
2022-10-09T03:11:21.221Z,4.00
2022-10-09T03:12:21.278Z,4.00
2022-10-09T03:13:21.202Z,4.00
2022-10-09T03:14:21.199Z,4.00
2022-10-09T03:15:21.182Z,4.00
2022-10-09T03:16:21.210Z,4.00
2022-10-09T03:17:21.164Z,4.00
2022-10-09T03:18:21.159Z,4.00
2022-10-09T03:19:21.153Z,4.00
2022-10-09T03:20:21.135Z,4.00
2022-10-09T03:21:21.125Z,4.00
2022-10-09T03:22:21.112Z,4.00
2022-10-09T03:23:21.106Z,4.00
2022-10-09T03:24:21.099Z,4.00
2022-10-09T03:25:21.089Z,4.00
2022-10-09T03:26:21.073Z,4.00
2022-10-09T03:27:21.068Z,4.00
2022-10-09T03:28:21.091Z,4.00
2022-10-09T03:29:21.048Z,4.00
2022-10-09T03:30:21.041Z,4.00
2022-10-09T03:31:50.742Z,4.00
2022-10-09T03:32:21.088Z,4.00
2022-10-09T03:33:21.008Z,4.00
2022-10-09T03:34:21.005Z,4.00
2022-10-09T03:35:20.988Z,4.00
2022-10-09T03:36:20.978Z,4.00
2022-10-09T03:37:20.972Z,4.00
2022-10-09T03:38:20.961Z,4.00
2022-10-09T03:39:20.946Z,4.00
2022-10-09T03:40:20.938Z,4.00
2022-10-09T03:41:21.030Z,4.00
2022-10-09T03:42:20.936Z,4.00
2022-10-09T03:43:20.911Z,4.00
2022-10-09T03:44:20.903Z,4.00
2022-10-09T03:45:20.889Z,4.00
2022-10-09T03:46:20.945Z,4.00
2022-10-09T03:47:20.868Z,4.00
2022-10-09T03:48:20.863Z,4.00
2022-10-09T03:49:20.852Z,4.00
2022-10-09T03:50:20.843Z,4.00
2022-10-09T03:51:20.932Z,4.00
2022-10-09T03:52:20.825Z,4.00
2022-10-09T03:53:20.811Z,4.00
2022-10-09T03:54:20.801Z,4.00
2022-10-09T03:55:20.796Z,4.00
2022-10-09T03:56:20.788Z,4.00
2022-10-09T03:57:20.772Z,4.00
2022-10-09T03:58:20.767Z,4.00
2022-10-09T03:59:20.750Z,4.00
2022-10-09T04:00:20.746Z,4.00
2022-10-09T04:01:20.847Z,4.00
2022-10-09T04:02:20.766Z,4.00
2022-10-09T04:03:20.710Z,4.00
2022-10-09T04:04:20.705Z,4.00
2022-10-09T04:05:20.692Z,4.00
2022-10-09T04:06:20.686Z,4.00
2022-10-09T04:07:20.674Z,4.00
2022-10-09T04:08:20.669Z,4.00
2022-10-09T04:09:20.657Z,4.00
2022-10-09T04:10:20.645Z,4.00
2022-10-09T04:11:20.633Z,4.00
2022-10-09T04:12:20.624Z,4.00
2022-10-09T04:13:20.616Z,4.00
2022-10-09T04:14:20.606Z,4.00
2022-10-09T04:15:20.591Z,4.00
2022-10-09T04:16:20.651Z,4.00
2022-10-09T04:17:20.675Z,4.00
2022-10-09T04:18:20.572Z,4.00
2022-10-09T04:19:20.555Z,4.00
2022-10-09T04:20:20.545Z,4.00
2022-10-09T04:21:20.541Z,4.00
2022-10-09T04:22:20.528Z,4.00
2022-10-09T04:23:20.521Z,4.00
2022-10-09T04:24:20.510Z,4.00
2022-10-09T04:25:20.493Z,4.00
2022-10-09T04:26:20.488Z,4.00
2022-10-09T04:27:20.477Z,4.00
2022-10-09T04:28:20.522Z,4.00
2022-10-09T04:29:20.456Z,4.00
2022-10-09T04:30:20.444Z,4.00
2022-10-09T04:31:20.514Z,4.00
2022-10-09T04:32:20.427Z,4.00
2022-10-09T04:33:20.419Z,4.00
2022-10-09T04:34:20.408Z,4.00
2022-10-09T04:35:20.398Z,4.00
2022-10-09T04:36:20.391Z,4.00
2022-10-09T04:37:20.381Z,4.00
2022-10-09T04:38:20.368Z,4.00
2022-10-09T04:39:20.361Z,4.00
2022-10-09T04:40:20.349Z,4.00
2022-10-09T04:41:20.334Z,4.00
2022-10-09T04:42:20.333Z,4.00
2022-10-09T04:43:20.320Z,4.00
2022-10-09T04:44:20.311Z,4.00
2022-10-09T04:45:20.302Z,4.00
2022-10-09T04:46:20.289Z,4.00
2022-10-09T04:47:20.385Z,4.00
2022-10-09T04:48:20.271Z,4.00
2022-10-09T04:49:20.255Z,4.00
2022-10-09T04:50:20.248Z,4.00
2022-10-09T04:51:20.240Z,4.00
2022-10-09T04:52:20.228Z,4.00
2022-10-09T04:53:20.222Z,4.00
2022-10-09T04:54:20.213Z,4.00
2022-10-09T04:55:20.197Z,4.00
2022-10-09T04:56:20.190Z,4.00
2022-10-09T04:57:20.174Z,4.00
2022-10-09T04:58:20.172Z,4.00
2022-10-09T04:59:20.160Z,4.00
2022-10-09T05:00:20.152Z,4.00
2022-10-09T05:01:20.199Z,4.00
2022-10-09T05:02:20.221Z,4.00
2022-10-09T05:03:20.216Z,4.00
2022-10-09T05:04:20.103Z,4.00
2022-10-09T05:05:20.099Z,4.00
2022-10-09T05:06:20.093Z,4.00
2022-10-09T05:07:20.081Z,4.00
2022-10-09T05:08:20.064Z,4.00
2022-10-09T05:09:20.053Z,4.00
2022-10-09T05:10:20.050Z,4.00
2022-10-09T05:11:20.037Z,4.00
2022-10-09T05:12:20.031Z,4.00
2022-10-09T05:13:20.113Z,4.00
2022-10-09T05:14:20.006Z,4.00
2022-10-09T05:15:19.996Z,4.00
2022-10-09T05:16:20.083Z,4.00
2022-10-09T05:17:23.171Z,4.00
2022-10-09T05:18:19.963Z,4.00
2022-10-09T05:19:19.955Z,4.00
2022-10-09T05:20:19.949Z,4.00
2022-10-09T05:21:19.936Z,4.00
2022-10-09T05:22:19.930Z,4.00
2022-10-09T05:23:20.015Z,4.00
2022-10-09T05:24:19.906Z,4.00
2022-10-09T05:25:19.894Z,4.00
2022-10-09T05:26:19.885Z,4.00
2022-10-09T05:27:19.870Z,4.00
2022-10-09T05:28:19.897Z,4.00
2022-10-09T05:29:19.854Z,4.00
2022-10-09T05:30:19.841Z,4.00
2022-10-09T05:31:19.891Z,4.00
2022-10-09T05:32:19.824Z,4.00
2022-10-09T05:33:19.811Z,4.00
2022-10-09T05:34:19.808Z,4.00
2022-10-09T05:35:19.793Z,4.00
2022-10-09T05:36:19.783Z,4.00
2022-10-09T05:37:19.770Z,4.00
2022-10-09T05:38:19.865Z,4.00
2022-10-09T05:39:19.758Z,4.00
2022-10-09T05:40:19.747Z,4.00
2022-10-09T05:41:19.729Z,4.00
2022-10-09T05:42:19.774Z,4.00
2022-10-09T05:43:19.713Z,4.00
2022-10-09T05:44:19.706Z,4.00
2022-10-09T05:45:19.689Z,4.00
2022-10-09T05:46:19.765Z,4.00
2022-10-09T05:47:19.690Z,4.00
2022-10-09T05:48:19.661Z,4.00
2022-10-09T05:49:19.747Z,4.00
2022-10-09T05:50:19.640Z,4.00
2022-10-09T05:51:19.633Z,4.00
2022-10-09T05:52:19.620Z,4.00
2022-10-09T05:53:19.610Z,4.00
2022-10-09T05:54:19.598Z,4.00
2022-10-09T05:55:19.594Z,4.00
2022-10-09T05:56:19.584Z,4.00
2022-10-09T05:57:19.565Z,4.00
2022-10-09T05:58:19.557Z,4.00
2022-10-09T05:59:19.598Z,4.00
2022-10-09T06:00:19.539Z,4.00
2022-10-09T06:01:19.649Z,4.00
2022-10-09T06:02:19.595Z,4.00
2022-10-09T06:03:19.505Z,4.00
2022-10-09T06:04:19.497Z,4.00
2022-10-09T06:05:19.588Z,4.00
2022-10-09T06:06:19.482Z,4.00
2022-10-09T06:07:19.467Z,4.00
2022-10-09T06:08:19.462Z,4.00
2022-10-09T06:09:19.445Z,4.00
2022-10-09T06:10:19.442Z,4.00
2022-10-09T06:11:19.426Z,4.00
2022-10-09T06:12:19.420Z,4.00
2022-10-09T06:13:19.406Z,4.00
2022-10-09T06:14:19.395Z,4.00
2022-10-09T06:15:19.388Z,4.00
2022-10-09T06:16:19.444Z,4.00
2022-10-09T06:17:19.363Z,4.00
2022-10-09T06:18:19.360Z,4.00
2022-10-09T06:19:19.364Z,4.00
2022-10-09T06:20:19.436Z,4.00
2022-10-09T06:21:19.325Z,4.00
2022-10-09T06:22:19.321Z,4.00
2022-10-09T06:23:19.303Z,4.00
2022-10-09T06:24:20.049Z,4.00
2022-10-09T06:25:19.283Z,4.00
2022-10-09T06:26:19.270Z,4.00
2022-10-09T06:27:19.259Z,4.00
2022-10-09T06:28:19.317Z,4.00
2022-10-09T06:29:19.237Z,4.00
2022-10-09T06:30:19.235Z,4.00
2022-10-09T06:31:19.313Z,4.00
2022-10-09T06:32:19.215Z,4.00
2022-10-09T06:33:19.223Z,4.00
2022-10-09T06:34:19.191Z,4.00
2022-10-09T06:35:19.183Z,4.00
2022-10-09T06:36:19.273Z,4.00
2022-10-09T06:37:19.156Z,4.00
2022-10-09T06:38:19.147Z,4.00
2022-10-09T06:39:19.139Z,4.00
2022-10-09T06:40:19.132Z,4.00
2022-10-09T06:41:19.120Z,4.00
2022-10-09T06:42:19.108Z,4.00
2022-10-09T06:43:19.098Z,4.00
2022-10-09T06:44:19.087Z,4.00
2022-10-09T06:45:19.078Z,4.00
2022-10-09T06:46:19.240Z,4.00
2022-10-09T06:47:19.053Z,4.00
2022-10-09T06:48:19.051Z,4.00
2022-10-09T06:49:19.035Z,4.00
2022-10-09T06:50:19.026Z,4.00
2022-10-09T06:51:19.021Z,4.00
2022-10-09T06:52:19.006Z,4.00
2022-10-09T06:53:18.994Z,4.00
2022-10-09T06:54:18.988Z,4.00
2022-10-09T06:55:18.976Z,4.00
2022-10-09T06:56:18.961Z,4.00
2022-10-09T06:57:18.952Z,4.00
2022-10-09T06:58:18.944Z,4.00
2022-10-09T06:59:18.937Z,4.00
2022-10-09T07:00:18.920Z,4.00
2022-10-09T07:01:19.086Z,4.00
2022-10-09T07:02:18.938Z,4.00
2022-10-09T07:03:18.889Z,4.00
2022-10-09T07:04:18.879Z,4.00
2022-10-09T07:05:18.868Z,4.00
2022-10-09T07:06:18.863Z,4.00
2022-10-09T07:07:18.855Z,4.00
2022-10-09T07:08:18.842Z,4.00
2022-10-09T07:09:18.829Z,4.00
2022-10-09T07:10:22.875Z,4.00
2022-10-09T07:11:18.808Z,4.00
2022-10-09T07:12:18.799Z,4.00
2022-10-09T07:13:18.793Z,4.00
2022-10-09T07:14:18.780Z,4.00
2022-10-09T07:15:18.764Z,4.00
2022-10-09T07:16:18.913Z,4.00
2022-10-09T07:17:18.754Z,4.00
2022-10-09T07:18:18.741Z,4.00
2022-10-09T07:19:18.735Z,4.00
2022-10-09T07:20:18.717Z,4.00
2022-10-09T07:21:18.711Z,4.00
2022-10-09T07:22:18.702Z,4.00
2022-10-09T07:23:18.690Z,4.00
2022-10-09T07:24:18.674Z,4.00
2022-10-09T07:25:18.665Z,4.00
2022-10-09T07:26:18.658Z,4.00
2022-10-09T07:27:18.651Z,4.00
2022-10-09T07:28:18.663Z,4.00
2022-10-09T07:29:18.624Z,4.00
2022-10-09T07:30:18.614Z,4.00
2022-10-09T07:31:18.692Z,4.00
2022-10-09T07:32:18.694Z,4.00
2022-10-09T07:33:18.583Z,4.00
2022-10-09T07:34:18.582Z,4.00
2022-10-09T07:35:18.576Z,4.00
2022-10-09T07:36:18.559Z,4.00
2022-10-09T07:37:18.546Z,4.00
2022-10-09T07:38:18.534Z,4.00
2022-10-09T07:39:18.521Z,4.00
2022-10-09T07:40:18.515Z,4.00
2022-10-09T07:41:18.499Z,4.00
2022-10-09T07:42:18.491Z,4.00
2022-10-09T07:43:18.478Z,4.00
2022-10-09T07:44:18.469Z,4.00
2022-10-09T07:45:18.461Z,4.00
2022-10-09T07:46:18.519Z,4.00
2022-10-09T07:47:18.539Z,4.00
2022-10-09T07:48:18.426Z,4.00
2022-10-09T07:49:18.422Z,4.00
2022-10-09T07:50:18.412Z,4.00
2022-10-09T07:51:18.404Z,4.00
2022-10-09T07:52:18.389Z,4.00
2022-10-09T07:53:18.380Z,4.00
2022-10-09T07:54:18.366Z,4.00
2022-10-09T07:55:18.357Z,4.00
2022-10-09T07:56:18.345Z,4.00
2022-10-09T07:57:18.338Z,4.00
2022-10-09T07:58:18.426Z,4.00
2022-10-09T07:59:18.316Z,4.00
2022-10-09T08:00:18.305Z,4.00
2022-10-09T08:01:20.306Z,4.00
2022-10-09T08:02:18.324Z,4.00
2022-10-09T08:03:18.277Z,4.00
2022-10-09T08:04:18.368Z,4.00
2022-10-09T08:05:18.257Z,4.00
2022-10-09T08:06:18.251Z,4.00
2022-10-09T08:07:18.231Z,4.00
2022-10-09T08:08:18.225Z,4.00
2022-10-09T08:09:18.208Z,4.00
2022-10-09T08:10:18.302Z,4.00
2022-10-09T08:11:18.193Z,4.00
2022-10-09T08:12:18.177Z,4.00
2022-10-09T08:13:18.173Z,4.00
2022-10-09T08:14:19.436Z,8.00
2022-10-09T08:15:18.254Z,8.00
2022-10-09T08:16:18.172Z,8.00
2022-10-09T08:17:18.125Z,8.00
2022-10-09T08:18:18.115Z,8.00
2022-10-09T08:19:18.114Z,8.00
2022-10-09T08:20:18.210Z,8.00
2022-10-09T08:21:18.092Z,8.00
2022-10-09T08:22:18.073Z,8.00
2022-10-09T08:23:18.068Z,4.00
2022-10-09T08:24:18.070Z,4.00
2022-10-09T08:25:18.149Z,4.00
2022-10-09T08:26:18.029Z,8.00
2022-10-09T08:27:18.028Z,4.00
2022-10-09T08:28:18.080Z,8.00
2022-10-09T08:29:18.003Z,8.00
2022-10-09T08:30:18.093Z,4.00
2022-10-09T08:31:18.015Z,8.00
2022-10-09T08:32:17.971Z,8.00
2022-10-09T08:33:17.960Z,8.00
2022-10-09T08:34:17.946Z,8.00
2022-10-09T08:35:18.041Z,12.00
2022-10-09T08:36:17.925Z,8.00
2022-10-09T08:37:17.917Z,12.00
2022-10-09T08:38:37.578Z,12.00
2022-10-09T08:39:17.900Z,12.00
2022-10-09T08:40:17.993Z,12.00
2022-10-09T08:41:17.879Z,12.00
2022-10-09T08:42:17.868Z,8.00
2022-10-09T08:43:17.857Z,12.00
2022-10-09T08:44:17.845Z,12.00
2022-10-09T08:45:17.939Z,16.00
2022-10-09T08:46:20.773Z,16.00
2022-10-09T08:47:17.815Z,20.00
2022-10-09T08:48:17.805Z,24.00
2022-10-09T08:49:17.796Z,24.00
2022-10-09T08:50:17.886Z,28.00
2022-10-09T08:51:17.775Z,24.00
2022-10-09T08:52:17.763Z,24.00
2022-10-09T08:53:17.751Z,32.00
2022-10-09T08:54:17.741Z,32.00
2022-10-09T08:55:17.840Z,36.00
2022-10-09T08:56:17.725Z,40.00
2022-10-09T08:57:17.713Z,44.00
2022-10-09T08:58:17.707Z,44.00
2022-10-09T08:59:17.692Z,48.00
2022-10-09T09:00:17.684Z,48.00
2022-10-09T09:01:17.717Z,52.00
2022-10-09T09:02:17.660Z,52.00
2022-10-09T09:03:17.698Z,52.00
2022-10-09T09:04:17.639Z,56.00
2022-10-09T09:05:17.628Z,60.00
2022-10-09T09:06:17.728Z,60.00
2022-10-09T09:07:17.609Z,60.00
2022-10-09T09:08:17.596Z,60.00
2022-10-09T09:09:17.588Z,60.00
2022-10-09T09:10:18.850Z,64.00
2022-10-09T09:11:21.456Z,64.00
2022-10-09T09:12:17.655Z,64.00
2022-10-09T09:13:17.546Z,64.00
2022-10-09T09:14:17.541Z,72.00
2022-10-09T09:15:17.527Z,72.00
2022-10-09T09:16:17.575Z,76.00
2022-10-09T09:17:17.605Z,80.00
2022-10-09T09:18:17.498Z,88.00
2022-10-09T09:19:17.488Z,88.00
2022-10-09T09:20:17.473Z,96.00
2022-10-09T09:21:17.464Z,100.00
2022-10-09T09:22:17.556Z,100.00
2022-10-09T09:23:17.447Z,112.00
2022-10-09T09:24:17.435Z,112.00
2022-10-09T09:25:17.419Z,116.00
2022-10-09T09:26:17.414Z,112.00
2022-10-09T09:27:17.504Z,116.00
2022-10-09T09:28:17.408Z,112.00
2022-10-09T09:29:17.381Z,112.00
2022-10-09T09:30:17.369Z,108.00
2022-10-09T09:31:17.398Z,116.00
2022-10-09T09:32:17.347Z,116.00
2022-10-09T09:33:17.439Z,112.00
2022-10-09T09:34:17.329Z,108.00
2022-10-09T09:35:17.318Z,104.00
2022-10-09T09:36:17.307Z,104.00
2022-10-09T09:37:17.294Z,108.00
2022-10-09T09:38:17.288Z,112.00
2022-10-09T09:40:36.047Z,132.00
2022-10-09T09:41:17.260Z,120.00
2022-10-09T09:42:17.248Z,120.00
2022-10-09T09:43:17.237Z,132.00
2022-10-09T09:44:17.326Z,144.00
2022-10-09T09:45:17.216Z,156.00
2022-10-09T09:46:17.238Z,160.00
2022-10-09T09:47:17.197Z,172.00
2022-10-09T09:48:17.181Z,172.00
2022-10-09T09:49:17.277Z,176.00
2022-10-09T09:50:42.225Z,180.00
2022-10-09T09:51:28.190Z,184.00
2022-10-09T09:52:17.145Z,180.00
2022-10-09T09:53:17.130Z,180.00
2022-10-09T09:54:17.222Z,164.00
2022-10-09T09:55:17.118Z,176.00
2022-10-09T09:56:17.099Z,184.00
2022-10-09T09:57:21.682Z,188.00
2022-10-09T09:58:17.080Z,192.00
2022-10-09T09:59:17.175Z,200.00
2022-10-09T10:00:17.062Z,212.00
2022-10-09T10:01:17.113Z,228.00
2022-10-09T10:02:17.116Z,236.00
2022-10-09T10:03:17.033Z,244.00
2022-10-09T10:04:17.127Z,244.00
2022-10-09T10:05:17.019Z,236.00
2022-10-09T10:06:17.004Z,228.00
2022-10-09T10:07:16.992Z,216.00
2022-10-09T10:08:16.980Z,216.00
2022-10-09T10:09:17.071Z,212.00
2022-10-09T10:10:19.889Z,208.00
2022-10-09T10:11:16.959Z,204.00
2022-10-09T10:12:16.946Z,196.00
2022-10-09T10:13:16.934Z,200.00
2022-10-09T10:14:17.020Z,196.00
2022-10-09T10:15:16.914Z,200.00
2022-10-09T10:16:16.965Z,196.00
2022-10-09T10:17:16.893Z,192.00
2022-10-09T10:18:16.889Z,192.00
2022-10-09T10:19:16.977Z,188.00
2022-10-09T10:20:16.863Z,188.00
2022-10-09T10:21:16.856Z,184.00
2022-10-09T10:22:16.848Z,188.00
2022-10-09T10:23:16.837Z,184.00
2022-10-09T10:24:16.829Z,184.00
2022-10-09T10:25:16.825Z,180.00
2022-10-09T10:26:16.802Z,192.00
2022-10-09T10:27:16.796Z,196.00
2022-10-09T10:28:16.812Z,212.00
2022-10-09T10:29:16.780Z,220.00
2022-10-09T10:30:16.766Z,216.00
2022-10-09T10:31:16.794Z,220.00
2022-10-09T10:32:16.745Z,216.00
2022-10-09T10:33:16.740Z,216.00
2022-10-09T10:34:16.829Z,232.00
2022-10-09T10:35:16.726Z,240.00
2022-10-09T10:36:16.706Z,240.00
2022-10-09T10:37:16.698Z,240.00
2022-10-09T10:38:16.691Z,240.00
2022-10-09T10:39:16.678Z,240.00
2022-10-09T10:40:16.664Z,240.00
2022-10-09T10:41:16.663Z,236.00
2022-10-09T10:42:16.647Z,232.00
2022-10-09T10:43:16.643Z,232.00
2022-10-09T10:44:16.628Z,232.00
2022-10-09T10:45:16.720Z,232.00
2022-10-09T10:46:16.644Z,236.00
2022-10-09T10:47:16.604Z,232.00
2022-10-09T10:48:16.591Z,232.00
2022-10-09T10:49:16.586Z,232.00
2022-10-09T10:50:16.581Z,236.00
2022-10-09T10:51:16.560Z,240.00
2022-10-09T10:52:16.558Z,236.00
2022-10-09T10:53:16.567Z,244.00
2022-10-09T10:54:16.540Z,240.00
2022-10-09T10:55:16.525Z,244.00
2022-10-09T10:56:16.517Z,248.00
2022-10-09T10:57:16.505Z,252.00
2022-10-09T10:58:16.556Z,260.00
2022-10-09T10:59:16.487Z,268.00
2022-10-09T11:00:16.478Z,276.00
2022-10-09T11:01:16.645Z,284.00
2022-10-09T11:02:16.461Z,288.00
2022-10-09T11:03:16.495Z,292.00
2022-10-09T11:04:16.440Z,296.00
2022-10-09T11:05:16.435Z,296.00
2022-10-09T11:06:16.425Z,292.00
2022-10-09T11:07:16.515Z,288.00
2022-10-09T11:08:16.407Z,284.00
2022-10-09T11:09:16.401Z,280.00
2022-10-09T11:10:16.469Z,276.00
2022-10-09T11:11:16.376Z,276.00
2022-10-09T11:12:30.091Z,244.00
2022-10-09T11:13:16.463Z,284.00
2022-10-09T11:14:20.033Z,292.00
2022-10-09T11:15:16.344Z,300.00
2022-10-09T11:16:16.400Z,300.00
2022-10-09T11:17:16.324Z,308.00
2022-10-09T11:18:16.317Z,272.00
2022-10-09T11:19:16.415Z,292.00
2022-10-09T11:20:16.339Z,300.00
2022-10-09T11:21:16.291Z,304.00
2022-10-09T11:22:16.281Z,304.00
2022-10-09T11:23:16.273Z,300.00
2022-10-09T11:24:16.363Z,296.00
2022-10-09T11:25:16.278Z,308.00
2022-10-09T11:26:16.244Z,324.00
2022-10-09T11:27:16.238Z,336.00
2022-10-09T11:28:16.257Z,340.00
2022-10-09T11:29:16.223Z,344.00
2022-10-09T11:30:16.327Z,344.00
2022-10-09T11:31:16.262Z,328.00
2022-10-09T11:32:16.192Z,312.00
2022-10-09T11:33:16.187Z,328.00
2022-10-09T11:34:16.182Z,332.00
2022-10-09T11:35:16.171Z,340.00
2022-10-09T11:36:16.168Z,344.00
2022-10-09T11:37:16.155Z,348.00
2022-10-09T11:38:16.147Z,356.00
2022-10-09T11:39:16.238Z,360.00
2022-10-09T11:40:16.130Z,356.00
2022-10-09T11:41:16.117Z,360.00
2022-10-09T11:42:16.110Z,364.00
2022-10-09T11:43:16.106Z,368.00
2022-10-09T11:44:16.095Z,368.00
2022-10-09T11:45:16.088Z,368.00
2022-10-09T11:46:16.156Z,372.00
2022-10-09T11:47:16.073Z,380.00
2022-10-09T11:48:16.065Z,376.00
2022-10-09T11:49:16.064Z,380.00
2022-10-09T11:50:16.053Z,372.00
2022-10-09T11:51:16.045Z,372.00
2022-10-09T11:52:16.041Z,364.00
2022-10-09T11:53:16.027Z,364.00
2022-10-09T11:54:16.128Z,364.00
2022-10-09T11:55:16.015Z,372.00
2022-10-09T11:56:16.012Z,372.00
2022-10-09T11:57:15.999Z,388.00
2022-10-09T11:58:15.995Z,400.00
2022-10-09T11:59:15.991Z,412.00
2022-10-09T12:00:15.983Z,412.00
2022-10-09T12:01:16.048Z,416.00
2022-10-09T12:02:15.975Z,428.00
2022-10-09T12:03:15.955Z,444.00
2022-10-09T12:04:20.900Z,448.00
2022-10-09T12:05:15.941Z,460.00
2022-10-09T12:06:15.937Z,492.00
2022-10-09T12:07:15.926Z,540.00
2022-10-09T12:08:18.500Z,596.00
2022-10-09T12:09:15.914Z,664.00
2022-10-09T12:10:15.910Z,728.00
2022-10-09T12:11:15.899Z,824.00
2022-10-09T12:12:15.896Z,916.00
2022-10-09T12:13:15.891Z,1016.00
2022-10-09T12:14:19.567Z,1092.00
2022-10-09T12:15:15.877Z,1148.00
2022-10-09T12:16:15.898Z,1204.00
2022-10-09T12:17:15.863Z,1240.00
2022-10-09T12:18:15.865Z,1280.00
2022-10-09T12:19:15.856Z,1312.00
2022-10-09T12:20:15.847Z,1348.00
2022-10-09T12:21:15.849Z,1380.00
2022-10-09T12:22:15.841Z,1400.00
2022-10-09T12:23:31.374Z,1424.00
2022-10-09T12:24:15.934Z,1444.00
2022-10-09T12:25:15.826Z,1472.00
2022-10-09T12:26:15.822Z,1488.00
2022-10-09T12:27:15.812Z,1504.00
2022-10-09T12:28:15.841Z,1532.00
2022-10-09T12:29:15.809Z,1548.00
2022-10-09T12:30:15.805Z,1592.00
2022-10-09T12:31:15.853Z,1564.00
2022-10-09T12:32:15.789Z,1584.00
2022-10-09T12:33:15.784Z,1604.00
2022-10-09T12:34:15.784Z,1640.00
2022-10-09T12:35:15.779Z,1696.00
2022-10-09T12:36:15.775Z,1652.00
2022-10-09T12:37:15.775Z,1896.00
2022-10-09T12:38:15.769Z,888.00
2022-10-09T12:39:15.768Z,2040.00
2022-10-09T12:40:15.761Z,1660.00
2022-10-09T12:41:20.070Z,2068.00
2022-10-09T12:42:15.823Z,2024.00
2022-10-09T12:43:15.753Z,1932.00
2022-10-09T12:44:15.749Z,1652.00
2022-10-09T12:45:15.739Z,1104.00
2022-10-09T12:46:15.790Z,1312.00
2022-10-09T12:47:15.736Z,1000.00
2022-10-09T12:48:15.728Z,1116.00
2022-10-09T12:49:15.727Z,1036.00
2022-10-09T12:50:15.725Z,1412.00
2022-10-09T12:51:15.721Z,1564.00
2022-10-09T12:52:15.718Z,1052.00
2022-10-09T12:53:15.712Z,1144.00
2022-10-09T12:54:15.713Z,1164.00
2022-10-09T12:55:15.808Z,1060.00
2022-10-09T12:56:15.703Z,1004.00
2022-10-09T12:57:15.700Z,896.00
2022-10-09T12:58:15.695Z,1748.00
2022-10-09T12:59:15.693Z,2092.00
2022-10-09T13:00:15.688Z,1968.00
2022-10-09T13:01:15.760Z,1860.00